sensor_id;sensor_type;location;lat;lon;timestamp;temperature;humidity
19138;DHT22;68178;52.188;5.598;2023-04-23T00:01:13;9.60;99.90
19138;DHT22;68178;52.188;5.598;2023-04-23T00:03:42;9.60;99.90
19138;DHT22;68178;52.188;5.598;2023-04-23T00:06:08;9.70;99.90
19138;DHT22;68178;52.188;5.598;2023-04-23T00:08:38;9.60;99.90
19138;DHT22;68178;52.188;5.598;2023-04-23T00:11:04;9.50;99.90
19138;DHT22;68178;52.188;5.598;2023-04-23T00:13:30;9.40;99.90
19138;DHT22;68178;52.188;5.598;2023-04-23T00:16:00;9.40;99.90
19138;DHT22;68178;52.188;5.598;2023-04-23T00:18:26;9.30;99.90
19138;DHT22;68178;52.188;5.598;2023-04-23T00:20:51;9.30;99.90
19138;DHT22;68178;52.188;5.598;2023-04-23T00:23:17;9.20;99.90
19138;DHT22;68178;52.188;5.598;2023-04-23T00:25:42;9.40;99.90
19138;DHT22;68178;52.188;5.598;2023-04-23T00:28:08;9.10;99.90
19138;DHT22;68178;52.188;5.598;2023-04-23T00:30:33;9.10;99.90
19138;DHT22;68178;52.188;5.598;2023-04-23T00:33:02;9.10;99.90
19138;DHT22;68178;52.188;5.598;2023-04-23T00:35:27;9.10;99.90
19138;DHT22;68178;52.188;5.598;2023-04-23T00:37:53;9.10;99.90
19138;DHT22;68178;52.188;5.598;2023-04-23T00:40:18;9.10;99.90
19138;DHT22;68178;52.188;5.598;2023-04-23T00:42:45;9.10;99.90
19138;DHT22;68178;52.188;5.598;2023-04-23T00:45:11;9.00;99.90
19138;DHT22;68178;52.188;5.598;2023-04-23T00:47:37;9.00;99.90
19138;DHT22;68178;52.188;5.598;2023-04-23T00:50:06;8.90;99.90
19138;DHT22;68178;52.188;5.598;2023-04-23T00:52:32;9.00;99.90
19138;DHT22;68178;52.188;5.598;2023-04-23T00:54:58;9.00;99.90
19138;DHT22;68178;52.188;5.598;2023-04-23T00:57:27;9.00;99.90
19138;DHT22;68178;52.188;5.598;2023-04-23T00:59:53;9.00;99.90
19138;DHT22;68178;52.188;5.598;2023-04-23T01:02:20;9.00;99.90
19138;DHT22;68178;52.188;5.598;2023-04-23T01:04:46;8.90;99.90
19138;DHT22;68178;52.188;5.598;2023-04-23T01:07:15;8.90;99.90
19138;DHT22;68178;52.188;5.598;2023-04-23T01:09:41;8.90;99.90
19138;DHT22;68178;52.188;5.598;2023-04-23T01:12:08;9.00;99.90
19138;DHT22;68178;52.188;5.598;2023-04-23T01:14:37;8.90;99.90
19138;DHT22;68178;52.188;5.598;2023-04-23T01:17:04;8.90;99.90
19138;DHT22;68178;52.188;5.598;2023-04-23T01:19:30;8.90;99.90
19138;DHT22;68178;52.188;5.598;2023-04-23T01:21:56;9.10;99.90
19138;DHT22;68178;52.188;5.598;2023-04-23T01:24:26;9.10;99.90
19138;DHT22;68178;52.188;5.598;2023-04-23T01:26:53;9.10;99.90
19138;DHT22;68178;52.188;5.598;2023-04-23T01:29:20;9.10;99.90
19138;DHT22;68178;52.188;5.598;2023-04-23T01:31:46;9.20;99.90
19138;DHT22;68178;52.188;5.598;2023-04-23T01:34:13;9.20;99.90
19138;DHT22;68178;52.188;5.598;2023-04-23T01:36:39;9.10;99.90
19138;DHT22;68178;52.188;5.598;2023-04-23T01:39:06;9.20;99.90
19138;DHT22;68178;52.188;5.598;2023-04-23T01:41:32;9.20;99.90
19138;DHT22;68178;52.188;5.598;2023-04-23T01:43:58;9.20;99.90
19138;DHT22;68178;52.188;5.598;2023-04-23T01:46:24;9.10;99.90
19138;DHT22;68178;52.188;5.598;2023-04-23T01:48:49;9.20;99.90
19138;DHT22;68178;52.188;5.598;2023-04-23T01:51:15;9.20;99.90
19138;DHT22;68178;52.188;5.598;2023-04-23T01:53:41;9.20;99.90
19138;DHT22;68178;52.188;5.598;2023-04-23T01:56:07;9.20;99.90
19138;DHT22;68178;52.188;5.598;2023-04-23T01:58:34;9.20;99.90
19138;DHT22;68178;52.188;5.598;2023-04-23T02:01:00;9.10;99.90
19138;DHT22;68178;52.188;5.598;2023-04-23T02:03:25;9.10;99.90
19138;DHT22;68178;52.188;5.598;2023-04-23T02:05:52;9.10;99.90
19138;DHT22;68178;52.188;5.598;2023-04-23T02:08:19;9.00;99.90
19138;DHT22;68178;52.188;5.598;2023-04-23T02:10:44;9.00;99.90
19138;DHT22;68178;52.188;5.598;2023-04-23T02:13:10;9.00;99.90
19138;DHT22;68178;52.188;5.598;2023-04-23T02:15:35;9.00;99.90
19138;DHT22;68178;52.188;5.598;2023-04-23T02:18:03;9.00;99.90
19138;DHT22;68178;52.188;5.598;2023-04-23T02:20:30;9.00;99.90
19138;DHT22;68178;52.188;5.598;2023-04-23T02:22:55;9.10;99.90
19138;DHT22;68178;52.188;5.598;2023-04-23T02:25:21;9.10;99.90
19138;DHT22;68178;52.188;5.598;2023-04-23T02:27:47;9.00;99.90
19138;DHT22;68178;52.188;5.598;2023-04-23T02:30:13;9.10;99.90
19138;DHT22;68178;52.188;5.598;2023-04-23T02:32:41;9.00;99.90
19138;DHT22;68178;52.188;5.598;2023-04-23T02:35:08;9.00;99.90
19138;DHT22;68178;52.188;5.598;2023-04-23T02:37:35;9.00;99.90
19138;DHT22;68178;52.188;5.598;2023-04-23T02:40:01;9.00;99.90
19138;DHT22;68178;52.188;5.598;2023-04-23T02:42:28;9.00;99.90
19138;DHT22;68178;52.188;5.598;2023-04-23T02:44:53;9.00;99.90
19138;DHT22;68178;52.188;5.598;2023-04-23T02:47:19;9.00;99.90
19138;DHT22;68178;52.188;5.598;2023-04-23T02:49:44;9.00;99.90
19138;DHT22;68178;52.188;5.598;2023-04-23T02:52:10;9.00;99.90
19138;DHT22;68178;52.188;5.598;2023-04-23T02:54:35;9.00;99.90
19138;DHT22;68178;52.188;5.598;2023-04-23T02:57:02;9.10;99.90
19138;DHT22;68178;52.188;5.598;2023-04-23T02:59:27;9.20;99.90
19138;DHT22;68178;52.188;5.598;2023-04-23T03:01:53;9.20;99.90
19138;DHT22;68178;52.188;5.598;2023-04-23T03:04:19;9.20;99.90
19138;DHT22;68178;52.188;5.598;2023-04-23T03:06:45;9.50;99.90
19138;DHT22;68178;52.188;5.598;2023-04-23T03:09:10;9.20;99.90
19138;DHT22;68178;52.188;5.598;2023-04-23T03:11:37;9.20;99.90
19138;DHT22;68178;52.188;5.598;2023-04-23T03:14:02;9.20;99.90
19138;DHT22;68178;52.188;5.598;2023-04-23T03:16:29;9.20;99.90
19138;DHT22;68178;52.188;5.598;2023-04-23T03:18:55;9.20;99.90
19138;DHT22;68178;52.188;5.598;2023-04-23T03:21:21;9.20;99.90
19138;DHT22;68178;52.188;5.598;2023-04-23T03:23:47;9.20;99.90
19138;DHT22;68178;52.188;5.598;2023-04-23T03:26:12;9.20;99.90
19138;DHT22;68178;52.188;5.598;2023-04-23T03:28:38;9.20;99.90
19138;DHT22;68178;52.188;5.598;2023-04-23T03:31:03;9.30;99.90
19138;DHT22;68178;52.188;5.598;2023-04-23T03:33:29;9.20;99.90
19138;DHT22;68178;52.188;5.598;2023-04-23T03:35:54;9.20;99.90
19138;DHT22;68178;52.188;5.598;2023-04-23T03:38:20;9.20;99.90
19138;DHT22;68178;52.188;5.598;2023-04-23T03:40:45;9.20;99.90
19138;DHT22;68178;52.188;5.598;2023-04-23T03:43:11;9.20;99.90
19138;DHT22;68178;52.188;5.598;2023-04-23T03:45:36;9.20;99.90
19138;DHT22;68178;52.188;5.598;2023-04-23T03:48:02;9.20;99.90
19138;DHT22;68178;52.188;5.598;2023-04-23T03:50:27;9.20;99.90
19138;DHT22;68178;52.188;5.598;2023-04-23T03:52:54;9.20;99.90
19138;DHT22;68178;52.188;5.598;2023-04-23T03:55:19;9.20;99.90
19138;DHT22;68178;52.188;5.598;2023-04-23T03:57:45;9.20;99.90
19138;DHT22;68178;52.188;5.598;2023-04-23T04:00:11;9.30;99.90
19138;DHT22;68178;52.188;5.598;2023-04-23T04:02:37;9.30;99.90
19138;DHT22;68178;52.188;5.598;2023-04-23T04:05:04;9.30;99.90
19138;DHT22;68178;52.188;5.598;2023-04-23T04:07:30;9.30;99.90
19138;DHT22;68178;52.188;5.598;2023-04-23T04:09:56;9.30;99.90
19138;DHT22;68178;52.188;5.598;2023-04-23T04:12:23;9.30;99.90
19138;DHT22;68178;52.188;5.598;2023-04-23T04:14:48;9.30;99.90
19138;DHT22;68178;52.188;5.598;2023-04-23T04:17:14;9.30;99.90
19138;DHT22;68178;52.188;5.598;2023-04-23T04:19:41;9.30;99.90
19138;DHT22;68178;52.188;5.598;2023-04-23T04:22:07;9.30;99.90
19138;DHT22;68178;52.188;5.598;2023-04-23T04:24:33;9.30;99.90
19138;DHT22;68178;52.188;5.598;2023-04-23T04:27:01;9.30;99.90
19138;DHT22;68178;52.188;5.598;2023-04-23T04:29:26;9.30;99.90
19138;DHT22;68178;52.188;5.598;2023-04-23T04:31:56;9.30;99.90
19138;DHT22;68178;52.188;5.598;2023-04-23T04:34:22;9.30;99.90
19138;DHT22;68178;52.188;5.598;2023-04-23T04:36:48;9.30;99.90
19138;DHT22;68178;52.188;5.598;2023-04-23T04:39:15;9.30;99.90
19138;DHT22;68178;52.188;5.598;2023-04-23T04:41:42;9.20;99.90
19138;DHT22;68178;52.188;5.598;2023-04-23T04:44:08;9.30;99.90
19138;DHT22;68178;52.188;5.598;2023-04-23T04:46:33;9.30;99.90
19138;DHT22;68178;52.188;5.598;2023-04-23T04:49:06;9.30;99.90
19138;DHT22;68178;52.188;5.598;2023-04-23T04:51:39;9.30;99.90
19138;DHT22;68178;52.188;5.598;2023-04-23T04:54:05;9.30;99.90
19138;DHT22;68178;52.188;5.598;2023-04-23T04:56:32;9.30;99.90
19138;DHT22;68178;52.188;5.598;2023-04-23T04:58:58;9.30;99.90
19138;DHT22;68178;52.188;5.598;2023-04-23T05:01:24;9.40;99.90
19138;DHT22;68178;52.188;5.598;2023-04-23T05:03:51;9.50;99.90
19138;DHT22;68178;52.188;5.598;2023-04-23T05:06:20;9.60;99.90
19138;DHT22;68178;52.188;5.598;2023-04-23T05:08:46;9.60;99.90
19138;DHT22;68178;52.188;5.598;2023-04-23T05:11:18;9.60;99.90
19138;DHT22;68178;52.188;5.598;2023-04-23T05:13:47;9.70;99.90
19138;DHT22;68178;52.188;5.598;2023-04-23T05:16:13;9.70;99.90
19138;DHT22;68178;52.188;5.598;2023-04-23T05:18:39;9.70;99.90
19138;DHT22;68178;52.188;5.598;2023-04-23T05:21:05;9.70;99.90
19138;DHT22;68178;52.188;5.598;2023-04-23T05:23:32;9.70;99.90
19138;DHT22;68178;52.188;5.598;2023-04-23T05:25:57;9.90;99.90
19138;DHT22;68178;52.188;5.598;2023-04-23T05:28:23;9.90;99.90
19138;DHT22;68178;52.188;5.598;2023-04-23T05:30:49;9.90;99.90
19138;DHT22;68178;52.188;5.598;2023-04-23T05:33:15;9.90;99.90
19138;DHT22;68178;52.188;5.598;2023-04-23T05:35:41;10.00;99.90
19138;DHT22;68178;52.188;5.598;2023-04-23T05:38:08;9.90;99.90
19138;DHT22;68178;52.188;5.598;2023-04-23T05:40:34;10.00;99.90
19138;DHT22;68178;52.188;5.598;2023-04-23T05:43:00;10.00;99.90
19138;DHT22;68178;52.188;5.598;2023-04-23T05:45:26;10.10;99.90
19138;DHT22;68178;52.188;5.598;2023-04-23T05:47:52;10.30;99.90
19138;DHT22;68178;52.188;5.598;2023-04-23T05:50:18;10.50;99.90
19138;DHT22;68178;52.188;5.598;2023-04-23T05:52:43;10.80;99.90
19138;DHT22;68178;52.188;5.598;2023-04-23T05:55:09;10.90;99.90
19138;DHT22;68178;52.188;5.598;2023-04-23T05:57:36;11.00;99.90
19138;DHT22;68178;52.188;5.598;2023-04-23T06:00:03;11.00;99.90
19138;DHT22;68178;52.188;5.598;2023-04-23T06:02:32;11.10;99.90
19138;DHT22;68178;52.188;5.598;2023-04-23T06:04:58;11.30;99.90
19138;DHT22;68178;52.188;5.598;2023-04-23T06:07:24;11.40;99.90
19138;DHT22;68178;52.188;5.598;2023-04-23T06:09:49;11.60;99.90
19138;DHT22;68178;52.188;5.598;2023-04-23T06:12:15;11.60;99.90
19138;DHT22;68178;52.188;5.598;2023-04-23T06:14:41;11.60;99.90
19138;DHT22;68178;52.188;5.598;2023-04-23T06:17:06;11.70;99.90
19138;DHT22;68178;52.188;5.598;2023-04-23T06:19:32;11.80;99.90
19138;DHT22;68178;52.188;5.598;2023-04-23T06:21:57;11.80;99.90
19138;DHT22;68178;52.188;5.598;2023-04-23T06:24:23;11.90;99.90
19138;DHT22;68178;52.188;5.598;2023-04-23T06:26:48;12.00;99.90
19138;DHT22;68178;52.188;5.598;2023-04-23T06:29:14;12.10;99.90
19138;DHT22;68178;52.188;5.598;2023-04-23T06:31:40;12.00;99.90
19138;DHT22;68178;52.188;5.598;2023-04-23T06:34:06;12.20;99.90
19138;DHT22;68178;52.188;5.598;2023-04-23T06:36:31;12.30;99.90
19138;DHT22;68178;52.188;5.598;2023-04-23T06:38:58;12.50;99.90
19138;DHT22;68178;52.188;5.598;2023-04-23T06:41:23;12.50;99.90
19138;DHT22;68178;52.188;5.598;2023-04-23T06:43:49;12.60;99.90
19138;DHT22;68178;52.188;5.598;2023-04-23T06:46:17;12.70;99.90
19138;DHT22;68178;52.188;5.598;2023-04-23T06:48:43;12.80;99.90
19138;DHT22;68178;52.188;5.598;2023-04-23T06:51:08;13.20;99.90
19138;DHT22;68178;52.188;5.598;2023-04-23T06:53:34;13.40;99.90
19138;DHT22;68178;52.188;5.598;2023-04-23T06:55:59;13.60;99.90
19138;DHT22;68178;52.188;5.598;2023-04-23T06:58:25;13.80;99.90
19138;DHT22;68178;52.188;5.598;2023-04-23T07:00:56;13.90;99.90
19138;DHT22;68178;52.188;5.598;2023-04-23T07:03:28;14.20;99.90
19138;DHT22;68178;52.188;5.598;2023-04-23T07:05:53;14.40;99.90
19138;DHT22;68178;52.188;5.598;2023-04-23T07:08:19;14.40;99.90
19138;DHT22;68178;52.188;5.598;2023-04-23T07:10:46;14.40;99.90
19138;DHT22;68178;52.188;5.598;2023-04-23T07:13:11;14.60;99.90
19138;DHT22;68178;52.188;5.598;2023-04-23T07:15:37;14.60;99.90
19138;DHT22;68178;52.188;5.598;2023-04-23T07:18:03;14.70;99.90
19138;DHT22;68178;52.188;5.598;2023-04-23T07:20:29;14.80;99.90
19138;DHT22;68178;52.188;5.598;2023-04-23T07:22:54;14.90;99.90
19138;DHT22;68178;52.188;5.598;2023-04-23T07:25:20;15.00;99.90
19138;DHT22;68178;52.188;5.598;2023-04-23T07:27:49;15.30;99.90
19138;DHT22;68178;52.188;5.598;2023-04-23T07:30:15;15.50;99.90
19138;DHT22;68178;52.188;5.598;2023-04-23T07:32:41;15.80;99.90
19138;DHT22;68178;52.188;5.598;2023-04-23T07:35:08;15.60;99.90
19138;DHT22;68178;52.188;5.598;2023-04-23T07:37:35;15.80;99.90
19138;DHT22;68178;52.188;5.598;2023-04-23T07:40:01;15.80;99.90
19138;DHT22;68178;52.188;5.598;2023-04-23T07:42:26;15.80;99.90
19138;DHT22;68178;52.188;5.598;2023-04-23T07:44:52;15.70;99.90
19138;DHT22;68178;52.188;5.598;2023-04-23T07:47:18;15.90;99.90
19138;DHT22;68178;52.188;5.598;2023-04-23T07:49:44;15.90;99.90
19138;DHT22;68178;52.188;5.598;2023-04-23T07:52:09;15.80;99.90
19138;DHT22;68178;52.188;5.598;2023-04-23T07:54:35;15.90;99.90
19138;DHT22;68178;52.188;5.598;2023-04-23T07:57:00;16.00;99.90
19138;DHT22;68178;52.188;5.598;2023-04-23T07:59:27;16.20;99.90
19138;DHT22;68178;52.188;5.598;2023-04-23T08:01:56;16.30;99.90
19138;DHT22;68178;52.188;5.598;2023-04-23T08:04:22;16.40;99.90
19138;DHT22;68178;52.188;5.598;2023-04-23T08:06:47;16.60;99.90
19138;DHT22;68178;52.188;5.598;2023-04-23T08:09:13;16.60;99.90
19138;DHT22;68178;52.188;5.598;2023-04-23T08:11:40;16.80;99.90
19138;DHT22;68178;52.188;5.598;2023-04-23T08:14:06;16.90;99.90
19138;DHT22;68178;52.188;5.598;2023-04-23T08:16:31;17.00;99.90
19138;DHT22;68178;52.188;5.598;2023-04-23T08:18:57;17.00;99.90
19138;DHT22;68178;52.188;5.598;2023-04-23T08:21:22;17.30;99.90
19138;DHT22;68178;52.188;5.598;2023-04-23T08:23:49;17.40;99.90
19138;DHT22;68178;52.188;5.598;2023-04-23T08:26:15;17.40;99.90
19138;DHT22;68178;52.188;5.598;2023-04-23T08:28:41;17.40;99.90
19138;DHT22;68178;52.188;5.598;2023-04-23T08:31:06;17.50;99.90
19138;DHT22;68178;52.188;5.598;2023-04-23T08:33:32;17.80;99.90
19138;DHT22;68178;52.188;5.598;2023-04-23T08:35:57;17.80;99.90
19138;DHT22;68178;52.188;5.598;2023-04-23T08:38:23;18.10;99.90
19138;DHT22;68178;52.188;5.598;2023-04-23T08:40:55;18.00;99.90
19138;DHT22;68178;52.188;5.598;2023-04-23T08:43:33;18.00;99.90
19138;DHT22;68178;52.188;5.598;2023-04-23T08:46:04;18.10;99.90
19138;DHT22;68178;52.188;5.598;2023-04-23T08:48:30;18.00;99.90
19138;DHT22;68178;52.188;5.598;2023-04-23T08:50:58;18.20;99.90
19138;DHT22;68178;52.188;5.598;2023-04-23T08:53:25;18.30;99.90
19138;DHT22;68178;52.188;5.598;2023-04-23T08:55:57;18.50;99.90
19138;DHT22;68178;52.188;5.598;2023-04-23T08:58:24;18.40;99.90
19138;DHT22;68178;52.188;5.598;2023-04-23T09:00:53;18.70;99.90
19138;DHT22;68178;52.188;5.598;2023-04-23T09:03:19;18.60;99.90
19138;DHT22;68178;52.188;5.598;2023-04-23T09:05:46;18.70;99.90
19138;DHT22;68178;52.188;5.598;2023-04-23T09:08:11;19.00;99.90
19138;DHT22;68178;52.188;5.598;2023-04-23T09:10:39;19.10;99.90
19138;DHT22;68178;52.188;5.598;2023-04-23T09:13:08;18.90;99.90
19138;DHT22;68178;52.188;5.598;2023-04-23T09:15:36;18.80;99.90
19138;DHT22;68178;52.188;5.598;2023-04-23T09:18:04;18.70;99.90
19138;DHT22;68178;52.188;5.598;2023-04-23T09:20:31;18.80;99.90
19138;DHT22;68178;52.188;5.598;2023-04-23T09:22:56;18.90;99.90
19138;DHT22;68178;52.188;5.598;2023-04-23T09:25:23;18.90;99.90
19138;DHT22;68178;52.188;5.598;2023-04-23T09:27:50;18.90;99.90
19138;DHT22;68178;52.188;5.598;2023-04-23T09:30:17;19.00;99.90
19138;DHT22;68178;52.188;5.598;2023-04-23T09:32:43;19.10;99.90
19138;DHT22;68178;52.188;5.598;2023-04-23T09:35:16;19.00;99.90
19138;DHT22;68178;52.188;5.598;2023-04-23T09:37:45;19.00;99.90
19138;DHT22;68178;52.188;5.598;2023-04-23T09:40:15;18.90;99.90
19138;DHT22;68178;52.188;5.598;2023-04-23T09:42:46;18.80;99.90
19138;DHT22;68178;52.188;5.598;2023-04-23T09:45:13;18.70;99.90
19138;DHT22;68178;52.188;5.598;2023-04-23T09:47:50;18.70;99.90
19138;DHT22;68178;52.188;5.598;2023-04-23T09:50:17;19.00;99.90
19138;DHT22;68178;52.188;5.598;2023-04-23T09:52:43;19.10;99.90
19138;DHT22;68178;52.188;5.598;2023-04-23T09:55:09;19.10;99.90
19138;DHT22;68178;52.188;5.598;2023-04-23T09:57:35;19.30;99.90
19138;DHT22;68178;52.188;5.598;2023-04-23T10:00:12;19.30;99.90
19138;DHT22;68178;52.188;5.598;2023-04-23T10:02:38;19.40;99.90
19138;DHT22;68178;52.188;5.598;2023-04-23T10:05:15;19.30;99.90
19138;DHT22;68178;52.188;5.598;2023-04-23T10:07:42;19.20;99.90
19138;DHT22;68178;52.188;5.598;2023-04-23T10:10:08;19.30;99.90
19138;DHT22;68178;52.188;5.598;2023-04-23T10:12:34;19.30;99.90
19138;DHT22;68178;52.188;5.598;2023-04-23T10:15:05;19.50;99.90
19138;DHT22;68178;52.188;5.598;2023-04-23T10:17:33;19.20;99.90
19138;DHT22;68178;52.188;5.598;2023-04-23T10:19:59;19.30;99.90
19138;DHT22;68178;52.188;5.598;2023-04-23T10:22:30;19.30;99.90
19138;DHT22;68178;52.188;5.598;2023-04-23T10:24:56;19.50;99.90
19138;DHT22;68178;52.188;5.598;2023-04-23T10:27:32;19.80;99.90
19138;DHT22;68178;52.188;5.598;2023-04-23T10:29:58;20.00;99.90
19138;DHT22;68178;52.188;5.598;2023-04-23T10:32:26;20.30;99.90
19138;DHT22;68178;52.188;5.598;2023-04-23T10:34:52;20.40;99.90
19138;DHT22;68178;52.188;5.598;2023-04-23T10:37:18;20.20;99.90
19138;DHT22;68178;52.188;5.598;2023-04-23T10:39:49;20.00;99.90
19138;DHT22;68178;52.188;5.598;2023-04-23T10:42:15;20.00;99.90
19138;DHT22;68178;52.188;5.598;2023-04-23T10:44:42;20.20;99.90
19138;DHT22;68178;52.188;5.598;2023-04-23T10:47:15;20.50;99.90
19138;DHT22;68178;52.188;5.598;2023-04-23T10:49:42;20.30;99.90
19138;DHT22;68178;52.188;5.598;2023-04-23T10:52:13;20.00;99.90
19138;DHT22;68178;52.188;5.598;2023-04-23T10:54:47;20.00;99.90
19138;DHT22;68178;52.188;5.598;2023-04-23T10:57:13;20.00;99.90
19138;DHT22;68178;52.188;5.598;2023-04-23T10:59:40;19.80;99.90
19138;DHT22;68178;52.188;5.598;2023-04-23T11:02:12;19.80;99.90
19138;DHT22;68178;52.188;5.598;2023-04-23T11:04:44;19.50;99.90
19138;DHT22;68178;52.188;5.598;2023-04-23T11:07:11;19.60;99.90
19138;DHT22;68178;52.188;5.598;2023-04-23T11:09:45;19.80;99.90
19138;DHT22;68178;52.188;5.598;2023-04-23T11:14:50;19.80;99.90
19138;DHT22;68178;52.188;5.598;2023-04-23T11:18:06;20.30;99.90
19138;DHT22;68178;52.188;5.598;2023-04-23T11:22:41;20.30;99.90
19138;DHT22;68178;52.188;5.598;2023-04-23T11:25:21;20.60;99.80
19138;DHT22;68178;52.188;5.598;2023-04-23T11:27:47;20.70;99.90
19138;DHT22;68178;52.188;5.598;2023-04-23T11:30:18;21.30;99.80
19138;DHT22;68178;52.188;5.598;2023-04-23T11:32:45;20.90;99.10
19138;DHT22;68178;52.188;5.598;2023-04-23T11:35:13;20.70;99.20
19138;DHT22;68178;52.188;5.598;2023-04-23T11:37:40;20.80;99.70
19138;DHT22;68178;52.188;5.598;2023-04-23T11:40:11;21.00;99.90
19138;DHT22;68178;52.188;5.598;2023-04-23T11:42:46;21.30;99.90
19138;DHT22;68178;52.188;5.598;2023-04-23T11:45:16;21.20;99.00
19138;DHT22;68178;52.188;5.598;2023-04-23T11:47:43;20.80;99.40
19138;DHT22;68178;52.188;5.598;2023-04-23T11:50:09;20.90;98.50
19138;DHT22;68178;52.188;5.598;2023-04-23T11:52:37;21.10;98.00
19138;DHT22;68178;52.188;5.598;2023-04-23T11:55:05;21.90;98.20
19138;DHT22;68178;52.188;5.598;2023-04-23T11:57:35;22.70;96.40
19138;DHT22;68178;52.188;5.598;2023-04-23T12:00:05;22.50;97.00
19138;DHT22;68178;52.188;5.598;2023-04-23T12:02:36;22.50;94.90
19138;DHT22;68178;52.188;5.598;2023-04-23T12:05:04;22.50;94.30
19138;DHT22;68178;52.188;5.598;2023-04-23T12:07:31;22.10;95.30
19138;DHT22;68178;52.188;5.598;2023-04-23T12:09:57;21.50;96.70
19138;DHT22;68178;52.188;5.598;2023-04-23T12:12:31;21.40;96.60
19138;DHT22;68178;52.188;5.598;2023-04-23T12:15:04;21.00;96.70
19138;DHT22;68178;52.188;5.598;2023-04-23T12:17:31;21.10;97.90
19138;DHT22;68178;52.188;5.598;2023-04-23T12:19:56;21.10;96.90
19138;DHT22;68178;52.188;5.598;2023-04-23T12:22:28;20.70;96.90
19138;DHT22;68178;52.188;5.598;2023-04-23T12:24:53;20.40;97.90
19138;DHT22;68178;52.188;5.598;2023-04-23T12:27:19;20.50;99.00
19138;DHT22;68178;52.188;5.598;2023-04-23T12:29:47;20.60;99.60
19138;DHT22;68178;52.188;5.598;2023-04-23T12:32:14;20.80;98.40
19138;DHT22;68178;52.188;5.598;2023-04-23T12:34:55;20.70;97.90
19138;DHT22;68178;52.188;5.598;2023-04-23T12:37:25;20.80;97.70
19138;DHT22;68178;52.188;5.598;2023-04-23T12:39:51;21.20;96.60
19138;DHT22;68178;52.188;5.598;2023-04-23T12:42:18;21.60;95.30
19138;DHT22;68178;52.188;5.598;2023-04-23T12:44:44;22.30;94.40
19138;DHT22;68178;52.188;5.598;2023-04-23T12:47:10;23.00;94.40
19138;DHT22;68178;52.188;5.598;2023-04-23T12:49:39;23.60;92.50
19138;DHT22;68178;52.188;5.598;2023-04-23T12:52:05;23.50;92.50
19138;DHT22;68178;52.188;5.598;2023-04-23T12:54:35;22.80;93.30
19138;DHT22;68178;52.188;5.598;2023-04-23T12:57:02;22.20;94.20
19138;DHT22;68178;52.188;5.598;2023-04-23T12:59:28;22.30;93.90
19138;DHT22;68178;52.188;5.598;2023-04-23T13:01:54;22.50;94.20
19138;DHT22;68178;52.188;5.598;2023-04-23T13:04:20;23.30;93.70
19138;DHT22;68178;52.188;5.598;2023-04-23T13:06:45;23.50;92.80
19138;DHT22;68178;52.188;5.598;2023-04-23T13:09:11;23.50;93.20
19138;DHT22;68178;52.188;5.598;2023-04-23T13:11:38;23.40;93.50
19138;DHT22;68178;52.188;5.598;2023-04-23T13:14:04;23.40;92.40
19138;DHT22;68178;52.188;5.598;2023-04-23T13:16:30;23.00;93.70
19138;DHT22;68178;52.188;5.598;2023-04-23T13:18:56;22.10;92.80
19138;DHT22;68178;52.188;5.598;2023-04-23T13:21:22;21.60;94.40
19138;DHT22;68178;52.188;5.598;2023-04-23T13:23:50;21.30;94.30
19138;DHT22;68178;52.188;5.598;2023-04-23T13:26:16;21.30;95.10
19138;DHT22;68178;52.188;5.598;2023-04-23T13:28:42;21.10;95.20
19138;DHT22;68178;52.188;5.598;2023-04-23T13:31:07;20.80;95.20
19138;DHT22;68178;52.188;5.598;2023-04-23T13:33:33;20.50;95.80
19138;DHT22;68178;52.188;5.598;2023-04-23T13:36:00;20.20;96.60
19138;DHT22;68178;52.188;5.598;2023-04-23T13:38:26;20.00;97.80
19138;DHT22;68178;52.188;5.598;2023-04-23T13:40:55;20.00;97.70
19138;DHT22;68178;52.188;5.598;2023-04-23T13:43:21;19.90;98.40
19138;DHT22;68178;52.188;5.598;2023-04-23T13:45:46;19.80;98.10
19138;DHT22;68178;52.188;5.598;2023-04-23T13:48:16;19.60;97.80
19138;DHT22;68178;52.188;5.598;2023-04-23T13:50:42;19.40;97.90
19138;DHT22;68178;52.188;5.598;2023-04-23T13:53:09;19.30;98.70
19138;DHT22;68178;52.188;5.598;2023-04-23T13:55:37;19.40;98.80
19138;DHT22;68178;52.188;5.598;2023-04-23T13:58:04;19.40;99.30
19138;DHT22;68178;52.188;5.598;2023-04-23T14:00:30;19.40;99.40
19138;DHT22;68178;52.188;5.598;2023-04-23T14:02:56;19.50;99.90
19138;DHT22;68178;52.188;5.598;2023-04-23T14:05:21;19.50;99.90
19138;DHT22;68178;52.188;5.598;2023-04-23T14:07:47;19.50;99.50
19138;DHT22;68178;52.188;5.598;2023-04-23T14:10:13;19.80;99.40
19138;DHT22;68178;52.188;5.598;2023-04-23T14:12:39;20.10;99.30
19138;DHT22;68178;52.188;5.598;2023-04-23T14:15:09;20.30;97.80
19138;DHT22;68178;52.188;5.598;2023-04-23T14:17:37;20.20;98.00
19138;DHT22;68178;52.188;5.598;2023-04-23T14:20:05;20.20;98.00
19138;DHT22;68178;52.188;5.598;2023-04-23T14:22:31;20.10;98.00
19138;DHT22;68178;52.188;5.598;2023-04-23T14:25:07;19.70;98.20
19138;DHT22;68178;52.188;5.598;2023-04-23T14:27:45;19.60;99.20
19138;DHT22;68178;52.188;5.598;2023-04-23T14:30:15;19.30;99.40
19138;DHT22;68178;52.188;5.598;2023-04-23T14:32:45;19.20;99.10
19138;DHT22;68178;52.188;5.598;2023-04-23T14:35:14;18.90;99.40
19138;DHT22;68178;52.188;5.598;2023-04-23T14:37:40;18.90;99.70
19138;DHT22;68178;52.188;5.598;2023-04-23T14:40:11;18.70;99.90
19138;DHT22;68178;52.188;5.598;2023-04-23T14:42:47;18.70;99.90
19138;DHT22;68178;52.188;5.598;2023-04-23T14:45:14;18.80;99.90
19138;DHT22;68178;52.188;5.598;2023-04-23T14:47:43;18.80;99.90
19138;DHT22;68178;52.188;5.598;2023-04-23T14:50:13;18.90;99.90
19138;DHT22;68178;52.188;5.598;2023-04-23T14:52:39;19.00;99.90
19138;DHT22;68178;52.188;5.598;2023-04-23T14:55:06;18.80;99.90
19138;DHT22;68178;52.188;5.598;2023-04-23T14:57:31;18.70;99.90
19138;DHT22;68178;52.188;5.598;2023-04-23T14:59:57;18.30;99.90
19138;DHT22;68178;52.188;5.598;2023-04-23T15:02:22;18.20;99.90
19138;DHT22;68178;52.188;5.598;2023-04-23T15:04:48;18.00;99.90
19138;DHT22;68178;52.188;5.598;2023-04-23T15:07:14;17.90;99.90
19138;DHT22;68178;52.188;5.598;2023-04-23T15:09:39;17.60;99.90
19138;DHT22;68178;52.188;5.598;2023-04-23T15:12:06;17.20;99.90
19138;DHT22;68178;52.188;5.598;2023-04-23T15:14:53;17.00;99.90
19138;DHT22;68178;52.188;5.598;2023-04-23T15:17:19;16.70;99.90
19138;DHT22;68178;52.188;5.598;2023-04-23T15:19:45;16.40;99.90
19138;DHT22;68178;52.188;5.598;2023-04-23T15:22:10;15.90;99.90
19138;DHT22;68178;52.188;5.598;2023-04-23T15:24:36;15.50;99.90
19138;DHT22;68178;52.188;5.598;2023-04-23T15:27:01;14.90;99.90
19138;DHT22;68178;52.188;5.598;2023-04-23T15:29:27;14.40;99.90
19138;DHT22;68178;52.188;5.598;2023-04-23T15:31:54;14.10;99.90
19138;DHT22;68178;52.188;5.598;2023-04-23T15:34:22;13.90;99.90
19138;DHT22;68178;52.188;5.598;2023-04-23T15:36:48;13.70;99.90
19138;DHT22;68178;52.188;5.598;2023-04-23T15:39:13;13.70;99.90
19138;DHT22;68178;52.188;5.598;2023-04-23T15:41:39;13.70;99.90